createdAt,value
2018-02-18T00:01:42.078Z,5.10
2018-02-18T00:07:00.044Z,6.37
2018-02-18T00:09:27.071Z,5.90
2018-02-18T00:11:54.204Z,6.17
2018-02-18T00:14:21.834Z,5.87
2018-02-18T00:16:48.880Z,5.50
2018-02-18T00:19:15.213Z,5.57
2018-02-18T00:21:41.767Z,5.35
2018-02-18T00:24:08.130Z,5.60
2018-02-18T00:26:34.459Z,6.57
2018-02-18T00:29:01.809Z,5.85
2018-02-18T00:31:28.123Z,6.18
2018-02-18T00:33:54.446Z,6.60
2018-02-18T00:36:21.677Z,6.80
2018-02-18T00:38:48.140Z,6.45
2018-02-18T00:41:14.577Z,6.00
2018-02-18T00:43:40.903Z,6.15
2018-02-18T00:46:07.331Z,5.82
2018-02-18T00:48:33.702Z,5.95
2018-02-18T00:51:00.101Z,6.72
2018-02-18T00:53:26.484Z,7.10
2018-02-18T00:55:52.829Z,7.07
2018-02-18T00:58:19.291Z,8.40
2018-02-18T01:00:45.676Z,8.00
2018-02-18T01:03:12.096Z,6.70
2018-02-18T01:05:38.554Z,7.15
2018-02-18T01:08:05.719Z,7.45
2018-02-18T01:10:32.912Z,7.10
2018-02-18T01:12:59.309Z,7.30
2018-02-18T01:15:25.793Z,6.50
2018-02-18T01:17:53.012Z,8.05
2018-02-18T01:20:20.247Z,7.70
2018-02-18T01:22:46.690Z,6.70
2018-02-18T01:25:13.123Z,7.20
2018-02-18T01:27:39.497Z,8.02
2018-02-18T01:30:05.919Z,7.87
2018-02-18T01:32:32.369Z,8.63
2018-02-18T01:34:58.801Z,8.45
2018-02-18T01:37:25.954Z,8.25
2018-02-18T01:39:53.052Z,8.77
2018-02-18T01:42:19.445Z,8.20
2018-02-18T01:44:45.925Z,9.13
2018-02-18T01:47:12.341Z,8.13
2018-02-18T01:49:38.804Z,7.03
2018-02-18T01:52:05.898Z,7.05
2018-02-18T01:54:32.325Z,8.25
2018-02-18T01:56:59.440Z,7.65
2018-02-18T01:59:25.825Z,7.62
2018-02-18T02:01:52.935Z,8.50
2018-02-18T02:04:19.347Z,7.78
2018-02-18T02:06:46.464Z,7.30
2018-02-18T02:09:12.961Z,7.53
2018-02-18T02:11:40.101Z,7.03
2018-02-18T02:14:07.530Z,6.75
2018-02-18T02:16:33.903Z,5.65
2018-02-18T02:19:00.361Z,7.12
2018-02-18T02:21:26.800Z,6.60
2018-02-18T02:23:53.306Z,6.18
2018-02-18T02:26:19.635Z,6.43
2018-02-18T02:28:46.070Z,6.20
2018-02-18T02:31:13.186Z,6.90
2018-02-18T02:33:39.558Z,6.70
2018-02-18T02:36:06.002Z,6.28
2018-02-18T02:38:32.697Z,6.70
2018-02-18T02:40:59.113Z,7.28
2018-02-18T04:00:57.604Z,6.43
2018-02-18T04:03:23.995Z,7.18
2018-02-18T04:05:50.465Z,6.30
2018-02-18T04:08:17.653Z,7.30
2018-02-18T04:10:44.065Z,6.35
2018-02-18T04:13:10.534Z,6.78
2018-02-18T04:15:37.665Z,6.95
2018-02-18T04:18:04.078Z,5.50
2018-02-18T04:20:30.473Z,5.68
2018-02-18T04:22:57.680Z,7.62
2018-02-18T04:25:24.122Z,6.43
2018-02-18T04:27:50.569Z,7.75
2018-02-18T04:30:18.016Z,5.05
2018-02-18T04:32:45.209Z,6.78
2018-02-18T04:35:11.620Z,6.00
2018-02-18T04:37:38.785Z,5.90
2018-02-18T04:40:05.946Z,6.95
2018-02-18T04:42:33.120Z,6.15
2018-02-18T04:45:00.280Z,6.28
2018-02-18T04:47:27.484Z,7.87
2018-02-18T04:49:53.876Z,6.03
2018-02-18T04:52:20.423Z,6.45
2018-02-18T04:54:46.768Z,6.00
2018-02-18T04:57:13.244Z,6.35
2018-02-18T04:59:39.670Z,7.00
2018-02-18T05:02:06.868Z,6.68
2018-02-18T05:04:33.276Z,6.28
2018-02-18T05:06:59.745Z,6.68
2018-02-18T05:09:26.164Z,6.40
2018-02-18T05:11:52.657Z,7.35
2018-02-18T05:14:19.072Z,7.28
2018-02-18T05:16:45.427Z,6.93
2018-02-18T06:35:09.841Z,6.85
2018-02-18T06:37:36.493Z,8.63
2018-02-18T06:40:03.079Z,7.40
2018-02-18T06:42:30.558Z,8.25
2018-02-18T06:44:56.969Z,7.15
2018-02-18T06:47:23.444Z,8.07
2018-02-18T06:49:49.859Z,8.38
2018-02-18T06:52:16.341Z,7.90
2018-02-18T06:54:42.740Z,7.80
2018-02-18T06:57:09.211Z,8.20
2018-02-18T06:59:36.366Z,10.60
2018-02-18T07:02:02.897Z,8.35
2018-02-18T07:04:29.260Z,8.88
2018-02-18T07:06:55.632Z,9.18
2018-02-18T07:09:22.839Z,10.30
2018-02-18T07:11:49.243Z,9.35
2018-02-18T07:14:16.424Z,9.75
2018-02-18T07:16:42.784Z,9.60
2018-02-18T07:19:09.241Z,12.40
2018-02-18T07:21:35.635Z,15.82
2018-02-18T07:24:02.835Z,11.95
2018-02-18T07:26:29.294Z,11.00
2018-02-18T07:28:55.757Z,10.98
2018-02-18T07:31:22.167Z,9.20
2018-02-18T07:33:48.592Z,9.63
2018-02-18T07:36:15.758Z,8.30
2018-02-18T07:38:42.948Z,9.82
2018-02-18T07:41:09.297Z,8.18
2018-02-18T07:43:35.733Z,8.60
2018-02-18T07:46:02.153Z,7.65
2018-02-18T07:48:29.346Z,8.80
2018-02-18T07:50:55.692Z,7.65
2018-02-18T07:53:22.148Z,6.87
2018-02-18T07:55:48.607Z,7.35
2018-02-18T07:58:15.024Z,7.97
2018-02-18T08:00:41.469Z,8.60
2018-02-18T08:03:07.917Z,8.43
2018-02-18T08:05:34.368Z,8.73
2018-02-18T08:08:00.831Z,8.70
2018-02-18T08:10:27.229Z,9.07
2018-02-18T08:12:53.693Z,8.70
2018-02-18T08:15:20.848Z,7.53
2018-02-18T08:17:48.040Z,6.80
2018-02-18T08:20:14.388Z,8.93
2018-02-18T08:22:40.836Z,8.63
2018-02-18T08:25:07.296Z,9.70
2018-02-18T08:27:33.756Z,10.55
2018-02-18T08:30:00.134Z,15.90
2018-02-18T08:32:26.628Z,10.13
2018-02-18T08:34:53.024Z,11.17
2018-02-18T08:37:19.485Z,9.50
2018-02-18T08:39:46.721Z,8.38
2018-02-18T08:42:13.105Z,7.43
2018-02-18T08:44:40.250Z,5.73
2018-02-18T08:47:06.663Z,6.60
2018-02-18T08:49:32.996Z,5.90
2018-02-18T08:51:59.468Z,5.40
2018-02-18T08:54:25.870Z,4.93
2018-02-18T08:56:52.517Z,5.40
2018-02-18T08:59:18.937Z,5.20
2018-02-18T09:01:46.116Z,4.45
2018-02-18T09:04:12.593Z,4.53
2018-02-18T09:06:39.273Z,4.20
2018-02-18T09:09:05.617Z,3.57
2018-02-18T09:11:32.281Z,4.10
2018-02-18T09:13:59.036Z,3.53
2018-02-18T09:16:25.469Z,3.93
2018-02-18T09:18:51.881Z,4.70
2018-02-18T09:21:19.019Z,3.93
2018-02-18T09:23:45.480Z,3.30
2018-02-18T09:26:12.611Z,5.70
2018-02-18T09:28:39.107Z,7.43
2018-02-18T09:31:05.529Z,5.87
2018-02-18T09:33:32.061Z,6.70
2018-02-18T09:35:58.610Z,4.43
2018-02-18T09:38:25.064Z,3.23
2018-02-18T09:40:51.516Z,2.90
2018-02-18T09:43:18.020Z,3.27
2018-02-18T09:45:44.443Z,3.50
2018-02-18T09:48:11.028Z,3.13
2018-02-18T09:50:37.622Z,2.53
2018-02-18T09:53:04.118Z,2.70
2018-02-18T09:55:30.879Z,2.70
2018-02-18T09:57:57.543Z,2.70
2018-02-18T10:00:23.992Z,2.70
2018-02-18T10:02:50.372Z,2.30
2018-02-18T10:05:16.856Z,2.40
2018-02-18T10:07:43.279Z,2.73
2018-02-18T10:10:10.490Z,2.77
2018-02-18T10:12:36.920Z,3.20
2018-02-18T10:15:03.376Z,2.60
2018-02-18T10:17:30.786Z,3.20
2018-02-18T10:19:57.274Z,2.83
2018-02-18T10:22:23.676Z,2.47
2018-02-18T10:24:50.353Z,2.60
2018-02-18T10:27:17.478Z,3.03
2018-02-18T10:29:43.907Z,3.00
2018-02-18T10:32:10.384Z,3.40
2018-02-18T10:34:36.878Z,2.83
2018-02-18T10:37:03.334Z,2.80
2018-02-18T10:39:29.801Z,3.40
2018-02-18T10:41:56.172Z,3.33
2018-02-18T10:44:22.716Z,3.10
2018-02-18T10:46:50.187Z,4.20
2018-02-18T10:49:16.622Z,3.57
2018-02-18T10:51:43.105Z,4.13
2018-02-18T10:54:10.245Z,2.20
2018-02-18T10:56:36.609Z,4.03
2018-02-18T10:59:03.022Z,3.73
2018-02-18T11:01:29.586Z,3.40
2018-02-18T11:03:56.087Z,3.70
2018-02-18T11:06:22.801Z,3.70
2018-02-18T11:08:49.268Z,3.60
2018-02-18T11:11:15.582Z,5.20
2018-02-18T11:13:41.983Z,3.53
2018-02-18T11:16:09.433Z,4.63
2018-02-18T11:18:36.518Z,4.33
2018-02-18T11:21:02.896Z,4.10
2018-02-18T11:23:29.389Z,3.40
2018-02-18T11:25:56.058Z,4.23
2018-02-18T11:28:22.788Z,4.40
2018-02-18T11:30:49.242Z,3.87
2018-02-18T11:33:16.376Z,4.17
2018-02-18T11:35:42.756Z,4.03
2018-02-18T11:38:09.218Z,4.57
2018-02-18T11:40:35.666Z,4.73
2018-02-18T11:43:03.212Z,4.70
2018-02-18T11:45:32.618Z,5.40
2018-02-18T11:47:59.753Z,5.23
2018-02-18T11:50:26.112Z,4.33
2018-02-18T11:52:52.632Z,4.53
2018-02-18T11:55:19.015Z,4.93
2018-02-18T11:57:45.421Z,4.70
2018-02-18T12:00:16.469Z,4.60
2018-02-18T12:02:42.880Z,4.70
2018-02-18T12:05:09.382Z,5.30
2018-02-18T12:07:35.813Z,5.30
2018-02-18T12:10:02.329Z,4.70
2018-02-18T12:12:28.846Z,6.00
2018-02-18T12:14:55.387Z,5.40
2018-02-18T12:17:23.804Z,5.70
2018-02-18T12:19:52.436Z,6.50
2018-02-18T12:22:18.944Z,5.70
2018-02-18T12:24:45.483Z,6.53
2018-02-18T12:27:13.386Z,5.27
2018-02-18T12:29:39.810Z,5.87
2018-02-18T12:32:06.260Z,5.23
2018-02-18T12:34:32.618Z,6.30
2018-02-18T12:36:59.063Z,6.80
2018-02-18T12:39:25.500Z,6.00
2018-02-18T12:41:51.923Z,6.60
2018-02-18T12:44:18.333Z,7.00
2018-02-18T12:46:45.457Z,6.73
2018-02-18T12:49:11.934Z,7.30
2018-02-18T12:51:46.321Z,6.57
2018-02-18T12:54:12.705Z,6.43
2018-02-18T12:56:39.213Z,5.90
2018-02-18T12:59:06.208Z,6.23
2018-02-18T13:01:32.646Z,8.10
2018-02-18T13:03:59.182Z,7.20
2018-02-18T13:06:25.661Z,7.00
2018-02-18T13:08:52.037Z,6.67
2018-02-18T13:11:18.444Z,8.43
2018-02-18T13:13:44.929Z,6.87
2018-02-18T13:16:11.336Z,7.30
2018-02-18T13:18:37.922Z,8.10
2018-02-18T13:21:04.389Z,7.83
2018-02-18T13:23:30.915Z,7.40
2018-02-18T13:25:58.035Z,6.60
2018-02-18T13:28:24.576Z,7.80
2018-02-18T13:30:52.971Z,7.00
2018-02-18T13:33:19.400Z,7.37
2018-02-18T13:35:45.751Z,8.23
2018-02-18T13:38:12.219Z,8.33
2018-02-18T13:40:38.467Z,7.60
2018-02-18T13:43:04.952Z,7.20
2018-02-18T13:45:31.213Z,7.23
2018-02-18T13:47:58.572Z,13.00
2018-02-18T13:50:24.916Z,7.10
2018-02-18T13:52:51.260Z,10.30
2018-02-18T13:55:18.300Z,7.70
2018-02-18T13:57:45.407Z,7.20
2018-02-18T14:00:11.800Z,7.80
2018-02-18T14:02:38.056Z,7.03
2018-02-18T14:05:06.161Z,7.23
2018-02-18T14:07:32.446Z,8.20
2018-02-18T14:09:59.466Z,7.10
2018-02-18T14:12:26.004Z,7.77
2018-02-18T14:14:52.369Z,7.80
2018-02-18T14:17:18.684Z,8.43
2018-02-18T14:19:45.736Z,7.43
2018-02-18T14:22:12.802Z,7.83
2018-02-18T14:24:39.152Z,6.33
2018-02-18T14:27:06.209Z,7.23
2018-02-18T14:29:32.549Z,7.13
2018-02-18T14:31:59.633Z,7.30
2018-02-18T14:34:25.955Z,7.50
2018-02-18T14:36:53.196Z,6.83
2018-02-18T14:39:19.448Z,8.17
2018-02-18T14:41:58.082Z,7.20
2018-02-18T14:44:36.665Z,7.53
2018-02-18T14:47:15.339Z,12.50
2018-02-18T14:52:57.880Z,7.87
2018-02-18T14:55:27.636Z,8.60
2018-02-18T14:57:53.937Z,7.13
2018-02-18T15:00:20.206Z,7.23
2018-02-18T15:02:46.458Z,7.30
2018-02-18T15:05:12.729Z,8.00
2018-02-18T15:07:39.004Z,7.67
2018-02-18T15:10:05.292Z,8.47
2018-02-18T15:12:31.584Z,7.60
2018-02-18T15:14:58.589Z,7.53
2018-02-18T15:17:24.856Z,8.00
2018-02-18T15:19:51.884Z,7.30
2018-02-18T15:22:18.206Z,8.27
2018-02-18T15:24:44.544Z,7.70
2018-02-18T15:27:10.892Z,6.77
2018-02-18T15:29:37.250Z,7.47
2018-02-18T15:32:03.581Z,7.40
2018-02-18T15:34:29.922Z,7.37
2018-02-18T15:36:56.257Z,6.90
2018-02-18T15:39:22.595Z,7.50
2018-02-18T15:41:48.958Z,6.80
2018-02-18T15:44:15.272Z,7.20
2018-02-18T15:46:41.654Z,7.50
2018-02-18T15:49:08.684Z,7.87
2018-02-18T15:51:34.924Z,7.40
2018-02-18T15:54:02.021Z,7.13
2018-02-18T15:56:28.327Z,7.90
2018-02-18T15:58:54.720Z,7.90
2018-02-18T16:01:20.988Z,8.20
2018-02-18T16:03:47.308Z,7.30
2018-02-18T16:06:14.340Z,6.97
2018-02-18T16:08:41.364Z,7.97
2018-02-18T16:11:07.881Z,7.70
2018-02-18T16:13:34.232Z,8.20
2018-02-18T16:16:00.498Z,10.40
2018-02-18T16:18:27.501Z,10.30
2018-02-18T16:20:54.147Z,8.70
2018-02-18T16:23:20.401Z,8.47
2018-02-18T16:25:47.468Z,9.50
2018-02-18T16:28:13.818Z,7.50
2018-02-18T16:30:40.143Z,7.33
2018-02-18T16:33:07.461Z,8.23
2018-02-18T16:35:34.484Z,9.03
2018-02-18T16:38:00.734Z,7.57
2018-02-18T16:40:27.771Z,7.53
2018-02-18T16:42:54.028Z,8.07
2018-02-18T16:45:20.276Z,8.03
2018-02-18T16:47:46.624Z,7.63
2018-02-18T16:50:12.875Z,7.13
2018-02-18T16:52:39.159Z,7.90
2018-02-18T16:55:05.612Z,7.90
2018-02-18T16:57:31.916Z,7.10
2018-02-18T16:59:58.167Z,7.60
2018-02-18T17:02:24.488Z,8.20
2018-02-18T17:04:50.737Z,8.37
2018-02-18T17:07:17.735Z,7.60
2018-02-18T17:09:44.748Z,7.67
2018-02-18T17:12:11.006Z,8.60
2018-02-18T17:14:38.024Z,10.27
2018-02-18T17:17:05.313Z,11.23
2018-02-18T17:19:31.635Z,10.33
2018-02-18T17:21:58.630Z,11.50
2018-02-18T17:24:25.091Z,10.60
2018-02-18T17:26:51.408Z,12.50
2018-02-18T17:29:17.744Z,11.43
2018-02-18T17:31:44.857Z,9.93
2018-02-18T17:34:11.149Z,11.87
2018-02-18T17:36:38.174Z,11.50
2018-02-18T17:39:04.445Z,10.37
2018-02-18T17:41:30.743Z,10.47
2018-02-18T17:43:57.050Z,10.67
2018-02-18T17:46:23.328Z,10.13
2018-02-18T17:48:50.308Z,9.40
2018-02-18T17:51:16.640Z,9.47
2018-02-18T17:53:42.875Z,9.57
2018-02-18T17:56:09.189Z,10.10
2018-02-18T17:58:35.448Z,10.23
2018-02-18T18:01:01.708Z,11.20
2018-02-18T18:03:28.738Z,13.87
2018-02-18T18:05:55.241Z,18.87
2018-02-18T18:08:21.542Z,17.10
2018-02-18T18:10:47.790Z,14.70
2018-02-18T18:13:14.108Z,16.27
2018-02-18T18:15:40.344Z,16.93
2018-02-18T18:18:06.608Z,14.13
2018-02-18T18:20:32.896Z,13.60
2018-02-18T18:22:59.156Z,10.83
2018-02-18T18:25:25.549Z,9.50
2018-02-18T18:27:53.132Z,10.07
2018-02-18T18:30:19.591Z,10.27
2018-02-18T18:32:45.988Z,10.00
2018-02-18T18:35:12.401Z,9.87
2018-02-18T18:37:39.493Z,10.10
2018-02-18T18:40:06.082Z,9.50
2018-02-18T18:42:33.120Z,10.20
2018-02-18T18:45:00.168Z,10.47
2018-02-18T18:47:27.254Z,10.23
2018-02-18T18:49:53.572Z,10.70
2018-02-18T18:52:20.870Z,10.00
2018-02-18T18:54:47.169Z,11.50
2018-02-18T18:57:13.769Z,11.13
2018-02-18T18:59:40.816Z,20.17
2018-02-18T19:02:07.832Z,21.80
2018-02-18T19:04:34.152Z,30.47
2018-02-18T19:07:00.517Z,28.00
2018-02-18T19:09:26.925Z,22.27
2018-02-18T19:11:53.170Z,13.57
2018-02-18T19:14:19.469Z,10.77
2018-02-18T19:16:45.728Z,10.77
2018-02-18T19:19:12.084Z,11.13
2018-02-18T19:21:39.363Z,12.97
2018-02-18T19:24:05.704Z,12.93
2018-02-18T19:26:32.000Z,13.40
2018-02-18T19:28:58.506Z,12.93
2018-02-18T19:31:24.856Z,10.27
2018-02-18T19:33:51.905Z,11.30
2018-02-18T19:36:18.965Z,8.77
2018-02-18T19:38:45.264Z,8.83
2018-02-18T19:41:11.673Z,8.57
2018-02-18T19:43:37.956Z,9.73
2018-02-18T19:46:04.340Z,9.10
2018-02-18T19:48:30.665Z,8.83
2018-02-18T19:50:57.092Z,8.63
2018-02-18T19:53:23.452Z,11.37
2018-02-18T19:55:50.040Z,9.37
2018-02-18T19:58:16.340Z,11.10
2018-02-18T20:00:43.460Z,9.00
2018-02-18T20:03:09.801Z,11.10
2018-02-18T20:05:36.863Z,15.70
2018-02-18T20:08:03.327Z,16.77
2018-02-18T20:10:29.610Z,13.30
2018-02-18T20:12:55.986Z,16.07
2018-02-18T20:15:22.292Z,15.30
2018-02-18T20:17:48.911Z,10.30
2018-02-18T20:20:15.412Z,12.50
2018-02-18T20:22:41.772Z,12.02
2018-02-18T20:25:08.101Z,12.73
2018-02-18T20:27:34.476Z,11.20
2018-02-18T20:30:00.789Z,11.30
2018-02-18T20:32:30.948Z,14.87
2018-02-18T20:34:57.251Z,12.17
2018-02-18T20:37:24.643Z,12.00
2018-02-18T20:39:50.896Z,13.60
2018-02-18T20:42:17.200Z,14.80
2018-02-18T20:44:43.581Z,17.03
2018-02-18T20:47:10.612Z,13.43
2018-02-18T20:49:36.893Z,15.10
2018-02-18T20:52:03.228Z,10.80
2018-02-18T20:54:29.587Z,10.70
2018-02-18T20:56:55.926Z,10.20
2018-02-18T20:59:22.264Z,10.53
2018-02-18T21:01:48.591Z,11.07
2018-02-18T21:04:14.967Z,9.80
2018-02-18T21:06:41.377Z,9.93
2018-02-18T21:09:08.608Z,10.13
2018-02-18T21:11:38.410Z,11.37
2018-02-18T21:14:04.721Z,11.83
2018-02-18T21:16:31.084Z,10.27
2018-02-18T21:18:57.424Z,10.20
2018-02-18T21:21:23.773Z,10.67
2018-02-18T21:23:50.136Z,10.47
2018-02-18T21:26:16.525Z,9.80
2018-02-18T21:28:43.650Z,9.67
2018-02-18T21:31:09.967Z,9.97
2018-02-18T21:33:36.288Z,9.30
2018-02-18T21:36:02.941Z,10.03
2018-02-18T21:38:29.279Z,10.17
2018-02-18T21:40:55.550Z,10.27
2018-02-18T21:43:21.904Z,10.57
2018-02-18T21:45:48.948Z,9.67
2018-02-18T21:48:15.316Z,10.40
2018-02-18T21:50:41.588Z,9.40
2018-02-18T21:53:07.884Z,9.50
2018-02-18T21:55:34.237Z,10.73
2018-02-18T21:58:01.276Z,11.33
2018-02-18T22:00:28.333Z,10.40
2018-02-18T22:02:55.412Z,9.67
2018-02-18T22:05:21.660Z,13.17
2018-02-18T22:07:47.967Z,11.23
2018-02-18T22:10:14.267Z,12.00
2018-02-18T22:12:41.332Z,12.20
2018-02-18T22:15:07.580Z,10.67
2018-02-18T22:17:33.900Z,11.70
2018-02-18T22:20:00.205Z,11.40
2018-02-18T22:22:27.189Z,10.97
2018-02-18T22:24:53.555Z,11.63
2018-02-18T22:27:19.852Z,12.20
2018-02-18T22:29:46.140Z,10.47
2018-02-18T22:32:13.176Z,11.20
2018-02-18T22:34:39.560Z,11.17
2018-02-18T22:37:05.808Z,11.47
2018-02-18T22:39:32.857Z,10.40
2018-02-18T22:41:59.185Z,10.70
2018-02-18T22:44:25.691Z,11.30
2018-02-18T22:46:51.964Z,11.17
2018-02-18T22:49:18.351Z,11.80
2018-02-18T22:51:44.693Z,11.70
2018-02-18T22:54:11.016Z,11.10
2018-02-18T22:56:37.373Z,11.10
2018-02-18T22:59:03.717Z,10.90
2018-02-18T23:01:30.076Z,12.60
2018-02-18T23:03:57.107Z,13.87
2018-02-18T23:06:24.202Z,13.77
2018-02-18T23:08:50.464Z,11.13
2018-02-18T23:11:16.787Z,12.17
2018-02-18T23:13:43.808Z,11.97
2018-02-18T23:16:10.184Z,12.50
2018-02-18T23:18:36.501Z,12.13
2018-02-18T23:21:08.797Z,12.27
2018-02-18T23:23:35.844Z,11.70
2018-02-18T23:26:03.017Z,12.15
2018-02-18T23:28:29.424Z,12.18
2018-02-18T23:30:55.705Z,11.00
2018-02-18T23:33:22.088Z,11.30
2018-02-18T23:35:48.400Z,11.70
2018-02-18T23:38:14.766Z,10.93
2018-02-18T23:40:41.797Z,12.43
2018-02-18T23:43:08.168Z,11.63
2018-02-18T23:45:34.476Z,11.13
2018-02-18T23:48:01.558Z,10.87
2018-02-18T23:50:27.967Z,10.90
2018-02-18T23:52:54.948Z,11.83
2018-02-18T23:55:21.325Z,10.63
2018-02-18T23:57:48.363Z,10.90
